sensor_id;sensor_type;location;lat;lon;timestamp;pressure;altitude;pressure_sealevel;temperature;humidity
15817;BME280;8009;50.070;8.232;2023-03-04T00:01:26;100809.06;;;1.66;72.12
15817;BME280;8009;50.070;8.232;2023-03-04T00:03:54;100809.13;;;1.64;72.13
15817;BME280;8009;50.070;8.232;2023-03-04T00:06:22;100801.22;;;1.60;72.27
15817;BME280;8009;50.070;8.232;2023-03-04T00:08:51;100809.53;;;1.48;72.57
15817;BME280;8009;50.070;8.232;2023-03-04T00:11:22;100810.22;;;1.56;72.39
15817;BME280;8009;50.070;8.232;2023-03-04T00:13:50;100818.25;;;1.54;72.53
15817;BME280;8009;50.070;8.232;2023-03-04T00:16:19;100809.22;;;1.60;71.75
15817;BME280;8009;50.070;8.232;2023-03-04T00:18:47;100811.34;;;1.81;71.33
15817;BME280;8009;50.070;8.232;2023-03-04T00:21:15;100810.75;;;1.70;71.62
15817;BME280;8009;50.070;8.232;2023-03-04T00:23:44;100809.50;;;1.83;71.52
15817;BME280;8009;50.070;8.232;2023-03-04T00:26:13;100810.28;;;1.54;72.46
15817;BME280;8009;50.070;8.232;2023-03-04T00:28:44;100807.94;;;1.75;71.81
15817;BME280;8009;50.070;8.232;2023-03-04T00:31:12;100812.09;;;1.52;72.56
15817;BME280;8009;50.070;8.232;2023-03-04T00:33:43;100813.84;;;1.53;72.45
15817;BME280;8009;50.070;8.232;2023-03-04T00:36:12;100804.94;;;1.87;71.16
15817;BME280;8009;50.070;8.232;2023-03-04T00:38:40;100809.09;;;1.99;70.77
15817;BME280;8009;50.070;8.232;2023-03-04T00:41:09;100808.44;;;1.56;72.08
15817;BME280;8009;50.070;8.232;2023-03-04T00:43:37;100809.19;;;1.95;71.14
15817;BME280;8009;50.070;8.232;2023-03-04T00:46:08;100809.09;;;1.99;70.88
15817;BME280;8009;50.070;8.232;2023-03-04T00:48:36;100802.00;;;1.98;70.85
15817;BME280;8009;50.070;8.232;2023-03-04T00:51:05;100804.81;;;1.60;71.81
15817;BME280;8009;50.070;8.232;2023-03-04T00:53:36;100800.00;;;2.06;70.80
15817;BME280;8009;50.070;8.232;2023-03-04T00:56:06;100798.22;;;1.74;71.65
15817;BME280;8009;50.070;8.232;2023-03-04T00:58:34;100800.00;;;1.73;71.81
15817;BME280;8009;50.070;8.232;2023-03-04T01:01:04;100793.56;;;2.14;70.50
15817;BME280;8009;50.070;8.232;2023-03-04T01:03:35;100791.34;;;1.98;70.61
15817;BME280;8009;50.070;8.232;2023-03-04T01:06:06;100787.38;;;1.81;71.44
15817;BME280;8009;50.070;8.232;2023-03-04T01:08:35;100791.09;;;1.74;71.50
15817;BME280;8009;50.070;8.232;2023-03-04T01:11:07;100794.28;;;1.88;70.94
15817;BME280;8009;50.070;8.232;2023-03-04T01:13:35;100789.38;;;1.73;71.93
15817;BME280;8009;50.070;8.232;2023-03-04T01:16:05;100787.44;;;2.11;70.41
15817;BME280;8009;50.070;8.232;2023-03-04T01:18:37;100789.88;;;2.18;70.26
15817;BME280;8009;50.070;8.232;2023-03-04T01:21:06;100785.13;;;2.30;69.79
15817;BME280;8009;50.070;8.232;2023-03-04T01:23:34;100789.44;;;2.03;70.46
15817;BME280;8009;50.070;8.232;2023-03-04T01:26:03;100784.00;;;2.06;70.55
15817;BME280;8009;50.070;8.232;2023-03-04T01:28:32;100781.91;;;2.17;69.80
15817;BME280;8009;50.070;8.232;2023-03-04T01:31:01;100771.44;;;2.11;69.89
15817;BME280;8009;50.070;8.232;2023-03-04T01:33:31;100766.38;;;2.02;70.75
15817;BME280;8009;50.070;8.232;2023-03-04T01:36:02;100770.00;;;1.99;70.20
15817;BME280;8009;50.070;8.232;2023-03-04T01:38:31;100761.88;;;2.04;70.52
15817;BME280;8009;50.070;8.232;2023-03-04T01:40:59;100766.06;;;2.12;69.90
15817;BME280;8009;50.070;8.232;2023-03-04T01:43:29;100759.09;;;2.08;70.31
15817;BME280;8009;50.070;8.232;2023-03-04T01:45:57;100756.34;;;2.11;70.00
15817;BME280;8009;50.070;8.232;2023-03-04T01:48:28;100751.94;;;2.10;69.88
15817;BME280;8009;50.070;8.232;2023-03-04T01:50:58;100740.28;;;2.14;69.77
15817;BME280;8009;50.070;8.232;2023-03-04T01:53:31;100738.34;;;2.19;69.52
15817;BME280;8009;50.070;8.232;2023-03-04T01:56:02;100737.63;;;2.42;68.44
15817;BME280;8009;50.070;8.232;2023-03-04T01:58:31;100734.50;;;2.58;67.67
15817;BME280;8009;50.070;8.232;2023-03-04T02:01:00;100733.31;;;2.09;69.33
15817;BME280;8009;50.070;8.232;2023-03-04T02:03:28;100742.41;;;2.33;68.79
15817;BME280;8009;50.070;8.232;2023-03-04T02:05:57;100736.06;;;2.37;68.60
15817;BME280;8009;50.070;8.232;2023-03-04T02:08:26;100735.75;;;2.46;68.13
15817;BME280;8009;50.070;8.232;2023-03-04T02:10:57;100734.72;;;2.22;68.96
15817;BME280;8009;50.070;8.232;2023-03-04T02:13:25;100731.69;;;2.34;68.58
15817;BME280;8009;50.070;8.232;2023-03-04T02:15:56;100727.66;;;2.49;68.15
15817;BME280;8009;50.070;8.232;2023-03-04T02:18:24;100727.53;;;2.24;68.61
15817;BME280;8009;50.070;8.232;2023-03-04T02:21:02;100719.13;;;2.08;69.40
15817;BME280;8009;50.070;8.232;2023-03-04T02:23:36;100723.91;;;2.27;69.15
15817;BME280;8009;50.070;8.232;2023-03-04T02:26:15;100734.97;;;2.42;68.09
15817;BME280;8009;50.070;8.232;2023-03-04T02:28:46;100720.84;;;2.09;69.25
15817;BME280;8009;50.070;8.232;2023-03-04T02:31:22;100722.50;;;2.43;68.39
15817;BME280;8009;50.070;8.232;2023-03-04T02:33:52;100721.16;;;2.30;68.62
15817;BME280;8009;50.070;8.232;2023-03-04T02:36:21;100720.91;;;2.08;69.46
15817;BME280;8009;50.070;8.232;2023-03-04T02:38:53;100710.91;;;2.16;68.88
15817;BME280;8009;50.070;8.232;2023-03-04T02:41:25;100720.78;;;2.42;68.69
15817;BME280;8009;50.070;8.232;2023-03-04T02:43:56;100715.59;;;2.08;69.20
15817;BME280;8009;50.070;8.232;2023-03-04T02:46:24;100708.84;;;2.26;69.10
15817;BME280;8009;50.070;8.232;2023-03-04T02:48:53;100701.84;;;2.79;66.98
15817;BME280;8009;50.070;8.232;2023-03-04T02:51:21;100711.22;;;2.35;68.17
15817;BME280;8009;50.070;8.232;2023-03-04T02:53:49;100713.31;;;2.53;67.87
15817;BME280;8009;50.070;8.232;2023-03-04T02:56:18;100710.66;;;2.25;68.93
15817;BME280;8009;50.070;8.232;2023-03-04T02:58:49;100709.56;;;2.31;68.67
15817;BME280;8009;50.070;8.232;2023-03-04T03:01:17;100705.34;;;2.24;69.20
15817;BME280;8009;50.070;8.232;2023-03-04T03:03:45;100710.34;;;2.34;68.62
15817;BME280;8009;50.070;8.232;2023-03-04T03:06:16;100697.25;;;2.55;68.02
15817;BME280;8009;50.070;8.232;2023-03-04T03:08:44;100707.22;;;2.50;68.10
15817;BME280;8009;50.070;8.232;2023-03-04T03:11:13;100702.84;;;2.75;67.63
15817;BME280;8009;50.070;8.232;2023-03-04T03:13:41;100706.16;;;2.82;67.26
15817;BME280;8009;50.070;8.232;2023-03-04T03:16:12;100711.59;;;2.52;68.65
15817;BME280;8009;50.070;8.232;2023-03-04T03:18:40;100700.63;;;2.61;68.03
15817;BME280;8009;50.070;8.232;2023-03-04T03:21:08;100694.34;;;2.90;67.14
15817;BME280;8009;50.070;8.232;2023-03-04T03:23:39;100687.47;;;2.83;67.10
15817;BME280;8009;50.070;8.232;2023-03-04T03:26:10;100704.38;;;2.82;67.42
15817;BME280;8009;50.070;8.232;2023-03-04T03:28:38;100700.91;;;2.80;67.30
15817;BME280;8009;50.070;8.232;2023-03-04T03:31:06;100708.16;;;3.03;67.00
15817;BME280;8009;50.070;8.232;2023-03-04T03:33:37;100705.72;;;2.69;67.46
15817;BME280;8009;50.070;8.232;2023-03-04T03:36:07;100704.22;;;2.60;67.96
15817;BME280;8009;50.070;8.232;2023-03-04T03:38:35;100702.41;;;2.61;67.72
15817;BME280;8009;50.070;8.232;2023-03-04T03:41:04;100703.88;;;2.13;69.73
15817;BME280;8009;50.070;8.232;2023-03-04T03:43:32;100703.09;;;2.10;69.99
15817;BME280;8009;50.070;8.232;2023-03-04T03:46:01;100701.75;;;2.25;69.77
15817;BME280;8009;50.070;8.232;2023-03-04T03:48:29;100690.75;;;2.37;69.44
15817;BME280;8009;50.070;8.232;2023-03-04T03:51:00;100694.09;;;2.70;68.35
15817;BME280;8009;50.070;8.232;2023-03-04T03:53:28;100684.75;;;2.85;67.84
15817;BME280;8009;50.070;8.232;2023-03-04T03:55:57;100681.13;;;2.87;67.50
15817;BME280;8009;50.070;8.232;2023-03-04T03:58:26;100686.94;;;2.72;68.35
15817;BME280;8009;50.070;8.232;2023-03-04T04:00:54;100683.13;;;2.53;68.90
15817;BME280;8009;50.070;8.232;2023-03-04T04:03:22;100683.50;;;3.22;66.87
15817;BME280;8009;50.070;8.232;2023-03-04T04:05:51;100684.03;;;2.80;67.75
15817;BME280;8009;50.070;8.232;2023-03-04T04:08:22;100681.13;;;3.12;66.83
15817;BME280;8009;50.070;8.232;2023-03-04T04:10:50;100682.09;;;3.36;65.77
15817;BME280;8009;50.070;8.232;2023-03-04T04:13:19;100682.16;;;3.08;66.24
15817;BME280;8009;50.070;8.232;2023-03-04T04:15:47;100677.03;;;3.29;66.08
15817;BME280;8009;50.070;8.232;2023-03-04T04:18:18;100683.91;;;3.36;66.09
15817;BME280;8009;50.070;8.232;2023-03-04T04:20:46;100678.06;;;3.25;66.37
15817;BME280;8009;50.070;8.232;2023-03-04T04:23:14;100687.75;;;3.27;66.11
15817;BME280;8009;50.070;8.232;2023-03-04T04:25:46;100683.84;;;3.37;65.93
15817;BME280;8009;50.070;8.232;2023-03-04T04:28:14;100675.53;;;3.20;66.16
15817;BME280;8009;50.070;8.232;2023-03-04T04:30:42;100674.94;;;3.62;65.15
15817;BME280;8009;50.070;8.232;2023-03-04T04:33:11;100682.25;;;3.57;65.00
15817;BME280;8009;50.070;8.232;2023-03-04T04:35:39;100677.88;;;3.54;65.09
15817;BME280;8009;50.070;8.232;2023-03-04T04:38:11;100682.75;;;3.18;65.86
15817;BME280;8009;50.070;8.232;2023-03-04T04:40:39;100682.63;;;3.46;65.57
15817;BME280;8009;50.070;8.232;2023-03-04T04:43:10;100679.47;;;3.35;65.44
15817;BME280;8009;50.070;8.232;2023-03-04T04:45:38;100679.97;;;3.21;65.54
15817;BME280;8009;50.070;8.232;2023-03-04T04:48:07;100678.75;;;3.55;65.05
15817;BME280;8009;50.070;8.232;2023-03-04T04:50:35;100676.31;;;3.49;64.72
15817;BME280;8009;50.070;8.232;2023-03-04T04:53:03;100676.63;;;3.39;65.53
15817;BME280;8009;50.070;8.232;2023-03-04T04:55:34;100678.69;;;3.06;66.19
15817;BME280;8009;50.070;8.232;2023-03-04T04:58:04;100675.16;;;3.06;66.90
15817;BME280;8009;50.070;8.232;2023-03-04T05:00:35;100676.56;;;3.16;66.09
15817;BME280;8009;50.070;8.232;2023-03-04T05:03:04;100672.50;;;3.06;66.04
15817;BME280;8009;50.070;8.232;2023-03-04T05:05:32;100673.94;;;3.41;65.11
15817;BME280;8009;50.070;8.232;2023-03-04T05:08:00;100665.28;;;3.08;67.30
15817;BME280;8009;50.070;8.232;2023-03-04T05:10:28;100676.63;;;3.14;65.42
15817;BME280;8009;50.070;8.232;2023-03-04T05:12:57;100671.75;;;3.52;64.47
15817;BME280;8009;50.070;8.232;2023-03-04T05:15:25;100664.75;;;3.23;65.62
15817;BME280;8009;50.070;8.232;2023-03-04T05:17:56;100673.16;;;3.37;64.94
15817;BME280;8009;50.070;8.232;2023-03-04T05:20:24;100672.31;;;3.37;64.77
15817;BME280;8009;50.070;8.232;2023-03-04T05:22:53;100674.25;;;3.57;65.01
15817;BME280;8009;50.070;8.232;2023-03-04T05:25:21;100673.09;;;3.39;65.34
15817;BME280;8009;50.070;8.232;2023-03-04T05:27:49;100667.34;;;3.00;66.16
15817;BME280;8009;50.070;8.232;2023-03-04T05:30:18;100667.44;;;3.23;65.91
15817;BME280;8009;50.070;8.232;2023-03-04T05:32:48;100665.75;;;3.21;65.63
15817;BME280;8009;50.070;8.232;2023-03-04T05:35:18;100671.84;;;3.49;64.80
15817;BME280;8009;50.070;8.232;2023-03-04T05:37:47;100670.56;;;3.36;64.93
15817;BME280;8009;50.070;8.232;2023-03-04T05:40:15;100660.81;;;3.58;64.59
15817;BME280;8009;50.070;8.232;2023-03-04T05:42:45;100671.84;;;3.49;64.76
15817;BME280;8009;50.070;8.232;2023-03-04T05:45:14;100672.78;;;3.48;65.12
15817;BME280;8009;50.070;8.232;2023-03-04T05:47:42;100678.34;;;3.42;64.69
15817;BME280;8009;50.070;8.232;2023-03-04T05:50:11;100677.78;;;3.57;64.21
15817;BME280;8009;50.070;8.232;2023-03-04T05:52:42;100673.88;;;3.42;64.62
15817;BME280;8009;50.070;8.232;2023-03-04T05:55:13;100673.44;;;3.30;65.07
15817;BME280;8009;50.070;8.232;2023-03-04T05:57:42;100669.84;;;3.04;66.28
15817;BME280;8009;50.070;8.232;2023-03-04T06:00:12;100680.84;;;3.47;64.08
15817;BME280;8009;50.070;8.232;2023-03-04T06:02:42;100668.25;;;3.25;64.80
15817;BME280;8009;50.070;8.232;2023-03-04T06:05:12;100675.34;;;3.51;63.97
15817;BME280;8009;50.070;8.232;2023-03-04T06:07:43;100686.84;;;3.78;64.04
15817;BME280;8009;50.070;8.232;2023-03-04T06:10:14;100682.56;;;3.73;63.38
15817;BME280;8009;50.070;8.232;2023-03-04T06:12:42;100677.75;;;3.34;65.10
15817;BME280;8009;50.070;8.232;2023-03-04T06:15:12;100684.72;;;3.38;65.16
15817;BME280;8009;50.070;8.232;2023-03-04T06:17:41;100686.41;;;3.40;64.36
15817;BME280;8009;50.070;8.232;2023-03-04T06:20:11;100691.69;;;3.42;64.16
15817;BME280;8009;50.070;8.232;2023-03-04T06:22:39;100685.88;;;3.56;63.93
15817;BME280;8009;50.070;8.232;2023-03-04T06:25:10;100699.53;;;3.47;64.59
15817;BME280;8009;50.070;8.232;2023-03-04T06:27:40;100689.59;;;3.75;64.05
15817;BME280;8009;50.070;8.232;2023-03-04T06:30:09;100695.06;;;3.72;63.52
15817;BME280;8009;50.070;8.232;2023-03-04T06:32:40;100713.31;;;3.84;62.72
15817;BME280;8009;50.070;8.232;2023-03-04T06:35:09;100704.75;;;3.50;63.98
15817;BME280;8009;50.070;8.232;2023-03-04T06:37:37;100702.94;;;3.52;64.33
15817;BME280;8009;50.070;8.232;2023-03-04T06:40:10;100705.13;;;3.39;64.30
15817;BME280;8009;50.070;8.232;2023-03-04T06:42:39;100712.50;;;3.57;64.30
15817;BME280;8009;50.070;8.232;2023-03-04T06:45:09;100714.19;;;3.60;63.64
15817;BME280;8009;50.070;8.232;2023-03-04T06:47:39;100719.97;;;3.48;64.19
15817;BME280;8009;50.070;8.232;2023-03-04T06:50:10;100714.59;;;3.74;62.80
15817;BME280;8009;50.070;8.232;2023-03-04T06:52:39;100722.09;;;3.88;63.23
15817;BME280;8009;50.070;8.232;2023-03-04T06:55:11;100724.56;;;3.92;63.14
15817;BME280;8009;50.070;8.232;2023-03-04T06:57:40;100727.28;;;4.16;63.57
15817;BME280;8009;50.070;8.232;2023-03-04T07:00:09;100728.84;;;3.73;63.23
15817;BME280;8009;50.070;8.232;2023-03-04T07:02:38;100726.28;;;4.19;62.26
15817;BME280;8009;50.070;8.232;2023-03-04T07:05:08;100726.94;;;4.02;62.97
15817;BME280;8009;50.070;8.232;2023-03-04T07:07:38;100726.75;;;4.06;62.47
15817;BME280;8009;50.070;8.232;2023-03-04T07:10:11;100732.47;;;3.96;62.81
15817;BME280;8009;50.070;8.232;2023-03-04T07:12:39;100727.41;;;4.13;62.63
15817;BME280;8009;50.070;8.232;2023-03-04T07:15:10;100728.09;;;4.18;62.42
15817;BME280;8009;50.070;8.232;2023-03-04T07:17:38;100732.19;;;4.03;62.55
15817;BME280;8009;50.070;8.232;2023-03-04T07:20:08;100737.41;;;4.31;61.91
15817;BME280;8009;50.070;8.232;2023-03-04T07:22:39;100741.75;;;4.10;62.00
15817;BME280;8009;50.070;8.232;2023-03-04T07:25:11;100745.91;;;3.94;62.58
15817;BME280;8009;50.070;8.232;2023-03-04T07:27:39;100744.66;;;4.28;62.12
15817;BME280;8009;50.070;8.232;2023-03-04T07:30:09;100750.13;;;4.01;62.86
15817;BME280;8009;50.070;8.232;2023-03-04T07:32:38;100742.38;;;4.17;63.13
15817;BME280;8009;50.070;8.232;2023-03-04T07:35:07;100742.88;;;4.03;62.85
15817;BME280;8009;50.070;8.232;2023-03-04T07:37:43;100738.22;;;3.85;63.51
15817;BME280;8009;50.070;8.232;2023-03-04T07:40:17;100749.06;;;4.05;63.12
15817;BME280;8009;50.070;8.232;2023-03-04T07:42:50;100746.69;;;3.98;63.29
15817;BME280;8009;50.070;8.232;2023-03-04T07:45:23;100752.16;;;4.18;63.07
15817;BME280;8009;50.070;8.232;2023-03-04T07:47:52;100756.03;;;4.09;63.33
15817;BME280;8009;50.070;8.232;2023-03-04T07:50:26;100754.41;;;4.29;63.27
15817;BME280;8009;50.070;8.232;2023-03-04T07:52:55;100754.88;;;3.93;64.79
15817;BME280;8009;50.070;8.232;2023-03-04T07:55:26;100761.78;;;3.99;62.88
15817;BME280;8009;50.070;8.232;2023-03-04T07:57:57;100757.50;;;4.18;62.59
15817;BME280;8009;50.070;8.232;2023-03-04T08:00:25;100759.19;;;4.21;62.94
15817;BME280;8009;50.070;8.232;2023-03-04T08:02:54;100757.66;;;4.13;63.61
15817;BME280;8009;50.070;8.232;2023-03-04T08:05:22;100760.72;;;4.28;62.86
15817;BME280;8009;50.070;8.232;2023-03-04T08:07:51;100764.19;;;4.30;62.83
15817;BME280;8009;50.070;8.232;2023-03-04T08:10:26;100755.31;;;4.04;63.54
15817;BME280;8009;50.070;8.232;2023-03-04T08:12:56;100760.03;;;3.98;63.57
15817;BME280;8009;50.070;8.232;2023-03-04T08:15:25;100755.56;;;3.73;64.83
15817;BME280;8009;50.070;8.232;2023-03-04T08:17:57;100765.00;;;4.08;63.68
15817;BME280;8009;50.070;8.232;2023-03-04T08:20:28;100767.88;;;4.02;63.94
15817;BME280;8009;50.070;8.232;2023-03-04T08:22:59;100772.28;;;4.03;63.29
15817;BME280;8009;50.070;8.232;2023-03-04T08:25:30;100775.44;;;4.14;63.12
15817;BME280;8009;50.070;8.232;2023-03-04T08:27:58;100769.72;;;4.00;63.44
15817;BME280;8009;50.070;8.232;2023-03-04T08:30:27;100769.63;;;4.03;63.41
15817;BME280;8009;50.070;8.232;2023-03-04T08:32:55;100772.84;;;4.36;62.48
15817;BME280;8009;50.070;8.232;2023-03-04T08:35:24;100771.59;;;3.98;64.18
15817;BME280;8009;50.070;8.232;2023-03-04T08:37:52;100775.84;;;4.27;62.98
15817;BME280;8009;50.070;8.232;2023-03-04T08:40:20;100776.09;;;4.21;62.96
15817;BME280;8009;50.070;8.232;2023-03-04T08:42:53;100776.47;;;4.35;62.47
15817;BME280;8009;50.070;8.232;2023-03-04T08:45:21;100780.09;;;4.09;63.05
15817;BME280;8009;50.070;8.232;2023-03-04T08:47:50;100779.22;;;4.09;63.25
15817;BME280;8009;50.070;8.232;2023-03-04T08:50:19;100777.88;;;4.68;61.71
15817;BME280;8009;50.070;8.232;2023-03-04T08:52:47;100774.06;;;4.51;62.67
15817;BME280;8009;50.070;8.232;2023-03-04T08:55:16;100776.34;;;3.90;64.10
15817;BME280;8009;50.070;8.232;2023-03-04T08:57:44;100780.00;;;4.12;63.42
15817;BME280;8009;50.070;8.232;2023-03-04T09:00:17;100785.09;;;4.19;63.17
15817;BME280;8009;50.070;8.232;2023-03-04T09:02:45;100777.81;;;4.69;61.80
15817;BME280;8009;50.070;8.232;2023-03-04T09:05:14;100781.25;;;4.49;62.89
15817;BME280;8009;50.070;8.232;2023-03-04T09:07:45;100773.66;;;4.62;62.72
15817;BME280;8009;50.070;8.232;2023-03-04T09:10:14;100777.44;;;4.56;62.41
15817;BME280;8009;50.070;8.232;2023-03-04T09:12:42;100783.59;;;4.58;62.45
15817;BME280;8009;50.070;8.232;2023-03-04T09:15:11;100781.19;;;4.27;63.14
15817;BME280;8009;50.070;8.232;2023-03-04T09:17:42;100789.53;;;4.43;62.48
15817;BME280;8009;50.070;8.232;2023-03-04T09:20:12;100783.28;;;4.43;62.87
15817;BME280;8009;50.070;8.232;2023-03-04T09:25:54;100771.69;;;4.44;62.53
15817;BME280;8009;50.070;8.232;2023-03-04T09:34:49;100770.28;;;4.10;63.18
15817;BME280;8009;50.070;8.232;2023-03-04T09:37:37;100772.34;;;4.50;62.19
15817;BME280;8009;50.070;8.232;2023-03-04T09:40:10;100775.31;;;4.64;61.91
15817;BME280;8009;50.070;8.232;2023-03-04T09:42:46;100779.28;;;4.78;61.93
15817;BME280;8009;50.070;8.232;2023-03-04T09:45:18;100777.16;;;4.86;61.40
15817;BME280;8009;50.070;8.232;2023-03-04T09:47:48;100771.25;;;5.22;61.17
15817;BME280;8009;50.070;8.232;2023-03-04T09:50:20;100766.22;;;5.14;60.58
15817;BME280;8009;50.070;8.232;2023-03-04T09:53:03;100772.75;;;5.29;60.65
15817;BME280;8009;50.070;8.232;2023-03-04T09:55:35;100784.56;;;4.79;61.11
15817;BME280;8009;50.070;8.232;2023-03-04T09:58:13;100781.19;;;4.74;62.47
15817;BME280;8009;50.070;8.232;2023-03-04T10:00:45;100777.34;;;4.81;61.46
15817;BME280;8009;50.070;8.232;2023-03-04T10:03:17;100779.78;;;4.66;61.90
15817;BME280;8009;50.070;8.232;2023-03-04T10:06:15;100780.16;;;4.78;61.24
15817;BME280;8009;50.070;8.232;2023-03-04T10:08:48;100768.66;;;5.20;60.33
15817;BME280;8009;50.070;8.232;2023-03-04T10:11:23;100774.50;;;4.86;61.72
15817;BME280;8009;50.070;8.232;2023-03-04T10:13:56;100776.13;;;4.90;61.68
15817;BME280;8009;50.070;8.232;2023-03-04T10:16:31;100767.78;;;5.20;60.53
15817;BME280;8009;50.070;8.232;2023-03-04T10:19:17;100755.84;;;5.69;60.12
15817;BME280;8009;50.070;8.232;2023-03-04T10:22:13;100762.19;;;5.04;61.14
15817;BME280;8009;50.070;8.232;2023-03-04T10:24:42;100766.84;;;4.99;61.36
15817;BME280;8009;50.070;8.232;2023-03-04T10:27:16;100759.19;;;5.11;61.17
15817;BME280;8009;50.070;8.232;2023-03-04T10:29:45;100756.75;;;5.05;60.90
15817;BME280;8009;50.070;8.232;2023-03-04T10:32:15;100757.69;;;4.82;62.17
15817;BME280;8009;50.070;8.232;2023-03-04T10:34:45;100754.50;;;5.17;60.80
15817;BME280;8009;50.070;8.232;2023-03-04T10:37:16;100758.34;;;4.87;61.73
15817;BME280;8009;50.070;8.232;2023-03-04T10:39:45;100758.94;;;4.74;62.33
15817;BME280;8009;50.070;8.232;2023-03-04T10:42:27;100758.56;;;4.83;61.98
15817;BME280;8009;50.070;8.232;2023-03-04T10:45:01;100757.44;;;4.67;61.91
15817;BME280;8009;50.070;8.232;2023-03-04T10:47:30;100758.00;;;4.75;62.48
15817;BME280;8009;50.070;8.232;2023-03-04T10:50:00;100748.78;;;4.82;62.07
15817;BME280;8009;50.070;8.232;2023-03-04T10:52:35;100750.25;;;5.33;60.64
15817;BME280;8009;50.070;8.232;2023-03-04T10:55:14;100749.94;;;5.19;60.94
15817;BME280;8009;50.070;8.232;2023-03-04T10:57:47;100742.06;;;5.58;60.78
15817;BME280;8009;50.070;8.232;2023-03-04T11:00:25;100735.97;;;5.12;61.23
15817;BME280;8009;50.070;8.232;2023-03-04T11:03:17;100732.25;;;5.36;61.14
15817;BME280;8009;50.070;8.232;2023-03-04T11:05:47;100716.81;;;5.21;60.98
15817;BME280;8009;50.070;8.232;2023-03-04T11:08:21;100725.56;;;5.47;60.77
15817;BME280;8009;50.070;8.232;2023-03-04T11:10:50;100730.59;;;5.54;60.43
15817;BME280;8009;50.070;8.232;2023-03-04T11:13:20;100725.16;;;5.56;60.85
15817;BME280;8009;50.070;8.232;2023-03-04T11:15:53;100729.44;;;4.97;61.97
15817;BME280;8009;50.070;8.232;2023-03-04T11:18:24;100727.25;;;5.70;60.39
15817;BME280;8009;50.070;8.232;2023-03-04T11:20:56;100723.09;;;5.42;60.60
15817;BME280;8009;50.070;8.232;2023-03-04T11:23:34;100720.97;;;5.08;61.48
15817;BME280;8009;50.070;8.232;2023-03-04T11:26:09;100716.72;;;5.24;61.05
15817;BME280;8009;50.070;8.232;2023-03-04T11:28:45;100716.25;;;5.35;60.93
15817;BME280;8009;50.070;8.232;2023-03-04T11:31:16;100723.59;;;5.30;60.75
15817;BME280;8009;50.070;8.232;2023-03-04T11:33:50;100720.91;;;5.09;61.04
15817;BME280;8009;50.070;8.232;2023-03-04T11:36:27;100714.78;;;5.06;61.33
15817;BME280;8009;50.070;8.232;2023-03-04T11:39:02;100715.97;;;4.99;61.34
15817;BME280;8009;50.070;8.232;2023-03-04T11:41:34;100703.97;;;5.29;61.36
15817;BME280;8009;50.070;8.232;2023-03-04T11:44:05;100712.84;;;5.31;61.27
15817;BME280;8009;50.070;8.232;2023-03-04T11:47:03;100711.16;;;5.49;60.31
15817;BME280;8009;50.070;8.232;2023-03-04T11:49:54;100707.16;;;5.39;60.59
15817;BME280;8009;50.070;8.232;2023-03-04T11:52:37;100709.31;;;5.09;61.87
15817;BME280;8009;50.070;8.232;2023-03-04T11:55:23;100703.41;;;5.23;61.23
15817;BME280;8009;50.070;8.232;2023-03-04T11:58:00;100705.53;;;5.35;60.73
15817;BME280;8009;50.070;8.232;2023-03-04T12:00:37;100692.41;;;5.29;61.13
15817;BME280;8009;50.070;8.232;2023-03-04T12:03:26;100693.16;;;5.32;61.07
15817;BME280;8009;50.070;8.232;2023-03-04T12:06:11;100689.31;;;5.18;60.94
15817;BME280;8009;50.070;8.232;2023-03-04T12:08:53;100675.84;;;4.99;61.80
15817;BME280;8009;50.070;8.232;2023-03-04T12:11:37;100685.66;;;5.20;61.04
15817;BME280;8009;50.070;8.232;2023-03-04T12:14:27;100677.53;;;5.22;61.07
15817;BME280;8009;50.070;8.232;2023-03-04T12:17:28;100675.69;;;5.44;60.35
15817;BME280;8009;50.070;8.232;2023-03-04T12:20:19;100665.09;;;5.41;60.89
15817;BME280;8009;50.070;8.232;2023-03-04T12:22:52;100668.47;;;5.46;60.09
15817;BME280;8009;50.070;8.232;2023-03-04T12:25:33;100665.09;;;5.41;60.30
15817;BME280;8009;50.070;8.232;2023-03-04T12:28:18;100657.78;;;5.45;60.09
15817;BME280;8009;50.070;8.232;2023-03-04T12:31:00;100658.41;;;5.91;59.17
15817;BME280;8009;50.070;8.232;2023-03-04T12:33:38;100651.94;;;6.15;57.96
15817;BME280;8009;50.070;8.232;2023-03-04T12:36:17;100650.91;;;6.18;58.47
15817;BME280;8009;50.070;8.232;2023-03-04T12:38:58;100641.34;;;6.50;58.09
15817;BME280;8009;50.070;8.232;2023-03-04T12:41:40;100634.19;;;6.68;57.21
15817;BME280;8009;50.070;8.232;2023-03-04T12:44:17;100637.69;;;6.15;58.01
15817;BME280;8009;50.070;8.232;2023-03-04T12:46:59;100633.16;;;6.53;56.63
15817;BME280;8009;50.070;8.232;2023-03-04T12:49:48;100636.81;;;6.69;56.43
15817;BME280;8009;50.070;8.232;2023-03-04T12:52:30;100632.72;;;6.79;56.43
15817;BME280;8009;50.070;8.232;2023-03-04T12:55:02;100627.22;;;7.00;56.12
15817;BME280;8009;50.070;8.232;2023-03-04T12:57:35;100619.00;;;6.49;57.00
15817;BME280;8009;50.070;8.232;2023-03-04T13:00:19;100620.59;;;6.53;57.40
15817;BME280;8009;50.070;8.232;2023-03-04T13:02:58;100620.25;;;6.42;57.35
15817;BME280;8009;50.070;8.232;2023-03-04T13:05:43;100615.78;;;6.24;57.64
15817;BME280;8009;50.070;8.232;2023-03-04T13:08:26;100611.47;;;6.39;57.66
15817;BME280;8009;50.070;8.232;2023-03-04T13:11:00;100607.28;;;6.69;58.94
15817;BME280;8009;50.070;8.232;2023-03-04T13:13:35;100603.81;;;7.02;57.80
15817;BME280;8009;50.070;8.232;2023-03-04T13:16:27;100593.00;;;6.86;57.49
15817;BME280;8009;50.070;8.232;2023-03-04T13:18:57;100602.72;;;6.35;58.77
15817;BME280;8009;50.070;8.232;2023-03-04T13:21:27;100593.06;;;6.67;57.01
15817;BME280;8009;50.070;8.232;2023-03-04T13:23:57;100599.03;;;6.38;58.51
15817;BME280;8009;50.070;8.232;2023-03-04T13:26:30;100585.81;;;6.69;57.61
15817;BME280;8009;50.070;8.232;2023-03-04T13:29:30;100591.69;;;6.95;57.34
15817;BME280;8009;50.070;8.232;2023-03-04T13:32:08;100585.94;;;7.02;58.81
15817;BME280;8009;50.070;8.232;2023-03-04T13:34:49;100581.47;;;6.67;58.49
15817;BME280;8009;50.070;8.232;2023-03-04T13:37:28;100582.75;;;6.77;57.47
15817;BME280;8009;50.070;8.232;2023-03-04T13:43:25;100571.28;;;6.73;58.02
15817;BME280;8009;50.070;8.232;2023-03-04T13:45:54;100573.81;;;7.11;57.47
15817;BME280;8009;50.070;8.232;2023-03-04T13:48:30;100576.38;;;6.79;57.27